Footville, Wisconsin
Current Conditions -  °F | °C
As of 2:15 AM on Tuesday 21 Oct 2014 (Local Time) from KJVL Reporting Station
Overcast Overcast  
Wind Chill: 50°   Ceiling: 4600
Heat Index: 50°   Visibility: 10mi
Dew Point: 41°   Wind: 5mph
Humidity: 71%   Direction: 30°NNE
Pressure: 30.05"   Gusts: NA
Location:  42.67°N, 89.21°W
Report Text: KJVL 210715Z AUTO 03004KT 10SM OVC046 10/05 A3005 RMK AO2
Loading
Personal Weather Stations






























Interactive Weather Map
Tropical Storm Tracking
New forecast layout! Learn more

10-Day Weather Forecast

Advertisements
Track Severe Weather on mobile